Time;durP1;ratioP1;P1;durP2;ratioP2;P2;SDS_P1;SDS_P2;PMS_P1;PMS_P2;Temp;Humidity;BMP_temperature;BMP_pressure;BME280_temperature;BME280_humidity;BME280_pressure;Samples;Min_cycle;Max_cycle;Signal;HPM_P1;HPM_P2
2021/12/25 00:01:02;;;;;;;2.75;1.13;;;-1.60;99.90;;;;;;5021642;28;20040;-64
2021/12/25 00:03:28;;;;;;;2.70;0.90;;;-1.70;99.90;;;;;;5038806;28;20078;-64
2021/12/25 00:05:54;;;;;;;2.53;1.00;;;-1.80;99.90;;;;;;5036550;28;20413;-64
2021/12/25 00:08:21;;;;;;;3.72;1.05;;;-1.80;99.90;;;;;;5044267;28;20353;-65
2021/12/25 00:10:47;;;;;;;2.63;1.08;;;-1.80;99.90;;;;;;5035721;28;20071;-65
2021/12/25 00:13:13;;;;;;;1.88;0.70;;;-1.60;99.90;;;;;;5034534;28;20037;-65
2021/12/25 00:15:39;;;;;;;2.30;1.10;;;-1.60;99.90;;;;;;5022879;28;20037;-64
2021/12/25 00:18:05;;;;;;;4.13;0.80;;;-1.70;99.90;;;;;;5047528;28;20045;-64
2021/12/25 00:20:31;;;;;;;2.78;0.93;;;-1.70;99.90;;;;;;5044683;28;20087;-65
2021/12/25 00:22:56;;;;;;;7.13;1.48;;;-1.70;99.90;;;;;;5031419;28;20086;-64
2021/12/25 00:25:23;;;;;;;3.92;1.05;;;-1.80;99.90;;;;;;5045414;28;20041;-64
2021/12/25 00:31:05;;;;;;;4.28;0.70;;;-1.80;99.90;;;;;;5031430;28;20335;-64
2021/12/25 00:33:29;;;;;;;3.55;0.68;;;-2.00;99.90;;;;;;5042825;28;20044;-63
2021/12/25 00:35:51;;;;;;;8.10;1.10;;;-2.00;99.90;;;;;;5045596;28;20077;-64
2021/12/25 00:38:16;;;;;;;2.33;0.85;;;-2.00;99.90;;;;;;5045557;28;20083;-65
2021/12/25 00:40:42;;;;;;;2.75;1.15;;;-2.00;99.90;;;;;;5030822;28;20041;-64
2021/12/25 00:43:07;;;;;;;4.35;2.28;;;-2.00;99.90;;;;;;5036695;28;20048;-64
2021/12/25 00:45:33;;;;;;;4.82;1.35;;;-2.00;99.90;;;;;;5044413;28;20151;-64
2021/12/25 00:48:00;;;;;;;4.65;1.00;;;-2.00;99.90;;;;;;5047224;28;20044;-64
2021/12/25 00:50:25;;;;;;;4.03;1.00;;;-2.00;99.90;;;;;;5047652;28;20048;-63
2021/12/25 00:52:51;;;;;;;5.15;0.90;;;-2.00;99.90;;;;;;5040076;28;20385;-68
2021/12/25 00:55:16;;;;;;;5.55;1.40;;;-2.00;99.90;;;;;;5031519;28;20516;-64
2021/12/25 00:57:42;;;;;;;4.68;1.45;;;-2.00;99.90;;;;;;5049568;28;20033;-63
2021/12/25 01:00:12;;;;;;;5.10;1.23;;;-2.00;99.90;;;;;;5042696;28;20037;-63
2021/12/25 01:02:40;;;;;;;2.50;0.90;;;-2.00;99.90;;;;;;5039214;28;20068;-63
2021/12/25 01:05:06;;;;;;;5.72;1.20;;;-2.00;99.90;;;;;;5018304;28;20065;-65
2021/12/25 01:07:32;;;;;;;2.60;1.20;;;-2.10;99.90;;;;;;5013334;28;20085;-64
2021/12/25 01:09:58;;;;;;;5.18;1.85;;;-2.10;99.90;;;;;;5046194;28;20080;-64
2021/12/25 01:12:23;;;;;;;5.40;1.23;;;-2.10;99.90;;;;;;5041230;28;20443;-63
2021/12/25 01:14:55;;;;;;;2.05;0.80;;;-2.20;99.90;;;;;;5043597;28;20044;-64
2021/12/25 01:18:04;;;;;;;2.35;0.75;;;-2.20;99.90;;;;;;5029017;28;20042;-63
2021/12/25 01:29:04;;;;;;;3.75;1.48;;;-2.40;99.90;;;;;;5021039;28;20045;-63
2021/12/25 01:31:41;;;;;;;1.90;0.82;;;-2.40;99.90;;;;;;5042805;28;20155;-63
2021/12/25 01:34:34;;;;;;;4.78;0.90;;;-2.40;99.90;;;;;;5046039;28;20045;-64
2021/12/25 01:37:05;;;;;;;5.50;1.00;;;-2.50;99.90;;;;;;5045533;28;20122;-63
2021/12/25 01:49:56;;;;;;;2.13;0.80;;;-2.60;99.90;;;;;;5038447;28;20132;-64
2021/12/25 01:52:26;;;;;;;4.97;1.00;;;-2.70;99.90;;;;;;5029983;28;20060;-64
2021/12/25 01:55:00;;;;;;;2.30;1.10;;;-2.60;99.90;;;;;;5029410;28;20656;-63
2021/12/25 01:57:28;;;;;;;4.80;1.00;;;-2.70;99.90;;;;;;5030683;28;20034;-63
2021/12/25 01:59:55;;;;;;;4.57;0.93;;;-2.70;99.90;;;;;;5029268;28;20049;-63
2021/12/25 02:02:21;;;;;;;2.58;0.98;;;-2.70;99.90;;;;;;5035427;28;20043;-62
2021/12/25 02:04:47;;;;;;;4.78;0.90;;;-2.70;99.90;;;;;;5037645;28;20037;-64
2021/12/25 02:07:13;;;;;;;7.60;1.30;;;-2.80;99.90;;;;;;5047808;28;20052;-63
2021/12/25 02:09:39;;;;;;;3.97;1.00;;;-2.70;99.90;;;;;;5049097;28;20045;-64
2021/12/25 02:12:05;;;;;;;3.70;1.48;;;-2.80;99.90;;;;;;5047265;28;20064;-63
2021/12/25 02:14:32;;;;;;;2.03;0.80;;;-2.80;99.90;;;;;;5047433;28;20044;-64
2021/12/25 02:17:07;;;;;;;2.72;0.80;;;-2.90;99.90;;;;;;5019044;28;20480;-63
2021/12/25 02:19:45;;;;;;;4.63;0.93;;;-2.90;99.90;;;;;;5045105;28;20384;-63
2021/12/25 02:22:11;;;;;;;6.13;0.90;;;-2.90;99.90;;;;;;5042027;28;20172;-63
2021/12/25 02:24:37;;;;;;;2.47;1.13;;;-2.90;99.90;;;;;;5040667;28;20079;-63
2021/12/25 02:27:04;;;;;;;3.50;1.00;;;-3.00;99.90;;;;;;5027732;28;20192;-64
2021/12/25 02:29:30;;;;;;;1.83;0.80;;;-3.00;99.90;;;;;;5045337;28;20049;-64
2021/12/25 02:31:57;;;;;;;1.90;0.90;;;-3.00;99.90;;;;;;5042113;28;20041;-63
2021/12/25 02:34:22;;;;;;;2.35;0.80;;;-3.00;99.90;;;;;;5039551;28;20318;-63
2021/12/25 02:36:48;;;;;;;2.42;0.80;;;-3.00;99.90;;;;;;5040345;28;20144;-63
2021/12/25 02:39:14;;;;;;;2.58;0.85;;;-3.10;99.90;;;;;;5048090;28;20033;-63
2021/12/25 02:41:40;;;;;;;1.67;1.10;;;-3.10;99.90;;;;;;5045700;28;20183;-63
2021/12/25 02:44:05;;;;;;;3.58;0.88;;;-3.10;99.90;;;;;;5047665;28;20037;-63
2021/12/25 02:46:31;;;;;;;3.67;0.93;;;-3.10;99.90;;;;;;5035727;28;20041;-64
2021/12/25 02:48:58;;;;;;;1.85;0.88;;;-3.10;99.90;;;;;;5034765;28;20029;-63
2021/12/25 02:51:24;;;;;;;2.45;0.70;;;-3.20;99.90;;;;;;5024367;28;20368;-63
2021/12/25 02:53:49;;;;;;;5.13;1.08;;;-3.20;99.90;;;;;;5041092;28;20057;-63
2021/12/25 02:56:15;;;;;;;2.88;1.00;;;-3.20;99.90;;;;;;5043690;28;20116;-63
2021/12/25 02:58:41;;;;;;;4.35;0.80;;;-3.30;99.90;;;;;;5045518;28;20037;-64
2021/12/25 03:01:19;;;;;;;2.08;0.75;;;-3.30;99.90;;;;;;5045732;28;20112;-63
2021/12/25 03:03:45;;;;;;;2.63;0.70;;;-3.30;99.90;;;;;;5049332;28;20488;-64
2021/12/25 03:06:11;;;;;;;2.78;0.90;;;-3.30;99.90;;;;;;5030183;28;20045;-63
2021/12/25 03:08:39;;;;;;;2.80;1.00;;;-3.30;99.90;;;;;;5035429;28;20079;-64
2021/12/25 03:11:07;;;;;;;1.30;0.95;;;-3.40;99.90;;;;;;5047711;28;20060;-64
2021/12/25 03:13:45;;;;;;;1.58;0.80;;;-3.40;99.90;;;;;;5048534;28;20142;-63
2021/12/25 03:16:12;;;;;;;1.17;0.60;;;-3.40;99.90;;;;;;5045823;28;20037;-63
2021/12/25 03:18:46;;;;;;;1.00;0.88;;;-3.40;99.90;;;;;;5036155;28;20033;-63
2021/12/25 03:21:12;;;;;;;4.25;0.80;;;-3.40;99.90;;;;;;5037252;28;20069;-64
2021/12/25 03:23:38;;;;;;;3.15;0.70;;;-3.50;99.90;;;;;;5038887;28;20445;-63
2021/12/25 03:26:06;;;;;;;3.50;0.77;;;-3.50;99.90;;;;;;5050891;28;20041;-64
2021/12/25 03:28:37;;;;;;;0.82;0.63;;;-3.50;99.90;;;;;;5031091;28;20048;-63
2021/12/25 03:31:06;;;;;;;3.80;0.70;;;-3.60;99.90;;;;;;5042427;28;20037;-63
2021/12/25 03:33:32;;;;;;;0.98;0.70;;;-3.50;99.90;;;;;;5044632;28;20037;-63
2021/12/25 03:35:58;;;;;;;6.25;1.33;;;-3.60;99.90;;;;;;5037656;28;20092;-63
2021/12/25 03:38:26;;;;;;;1.52;1.10;;;-3.60;99.90;;;;;;5033729;28;20041;-63
2021/12/25 03:40:53;;;;;;;1.55;0.60;;;-3.60;99.90;;;;;;5014512;28;20440;-64
2021/12/25 03:43:19;;;;;;;4.43;1.30;;;-3.70;99.90;;;;;;5031664;28;20041;-63
2021/12/25 03:45:46;;;;;;;0.88;0.80;;;-3.70;99.90;;;;;;5059096;28;20114;-63
2021/12/25 03:48:26;;;;;;;1.85;0.80;;;-3.70;99.90;;;;;;5044093;28;20469;-63
2021/12/25 03:59:08;;;;;;;2.40;0.63;;;-3.80;99.90;;;;;;5041207;28;20102;-63
2021/12/25 04:04:13;;;;;;;1.15;0.60;;;-3.80;99.90;;;;;;5037136;28;20049;-63
2021/12/25 04:06:46;;;;;;;1.85;0.60;;;-3.90;99.90;;;;;;5032097;28;20434;-63
2021/12/25 04:09:25;;;;;;;1.95;0.82;;;-3.90;99.90;;;;;;5030473;28;20076;-62
2021/12/25 04:11:51;;;;;;;1.10;0.90;;;-3.90;99.90;;;;;;5035799;28;20175;-63
2021/12/25 04:14:17;;;;;;;5.35;1.38;;;-3.90;99.90;;;;;;5048581;28;20072;-63
2021/12/25 04:16:43;;;;;;;0.70;0.70;;;-3.90;99.90;;;;;;5047261;28;20137;-64
2021/12/25 04:19:08;;;;;;;1.35;0.80;;;-3.90;99.90;;;;;;5033872;28;20449;-63
2021/12/25 04:21:36;;;;;;;0.88;0.68;;;-3.90;99.90;;;;;;5020293;28;20061;-64
2021/12/25 04:24:02;;;;;;;2.92;0.80;;;-4.00;99.90;;;;;;5038951;28;20045;-63
2021/12/25 04:26:27;;;;;;;3.10;0.70;;;-4.00;99.90;;;;;;5030252;28;20057;-63
2021/12/25 05:04:09;;;;;;;2.40;0.65;;;-3.90;99.90;;;;;;5034916;28;20045;-63
2021/12/25 05:06:34;;;;;;;1.83;0.68;;;-3.90;99.90;;;;;;5042823;28;20112;-64
2021/12/25 05:09:00;;;;;;;0.60;0.60;;;-3.90;99.90;;;;;;5054620;28;20129;-63
2021/12/25 05:11:26;;;;;;;1.05;0.70;;;-3.90;99.90;;;;;;5029008;28;20472;-63
2021/12/25 05:13:52;;;;;;;3.35;0.80;;;-3.90;99.90;;;;;;5042249;28;20063;-63
2021/12/25 05:16:18;;;;;;;0.68;0.55;;;-3.90;99.90;;;;;;5046781;28;20439;-63
2021/12/25 05:18:43;;;;;;;1.70;0.57;;;-3.90;99.90;;;;;;5021940;28;20068;-63
2021/12/25 05:21:09;;;;;;;2.28;0.80;;;-3.90;99.90;;;;;;5048587;28;20051;-63
2021/12/25 05:23:36;;;;;;;1.13;0.80;;;-4.00;99.90;;;;;;5045714;28;20131;-63
2021/12/25 05:26:02;;;;;;;1.40;0.70;;;-4.00;99.90;;;;;;5028338;28;20124;-63
2021/12/25 05:28:38;;;;;;;1.80;0.50;;;-4.00;99.90;;;;;;5047493;28;20045;-63
2021/12/25 05:31:04;;;;;;;1.67;0.60;;;-4.00;99.90;;;;;;5038890;28;20128;-63
2021/12/25 05:33:29;;;;;;;1.15;0.68;;;-4.00;99.90;;;;;;5045561;28;20120;-63
2021/12/25 05:35:55;;;;;;;3.50;0.90;;;-4.00;99.90;;;;;;5044523;28;20473;-63
2021/12/25 05:38:22;;;;;;;5.40;0.90;;;-4.10;99.90;;;;;;5037552;28;20037;-63
2021/12/25 05:40:47;;;;;;;2.25;0.60;;;-4.00;99.90;;;;;;5029701;28;20072;-67
2021/12/25 05:43:13;;;;;;;2.15;0.95;;;-4.10;99.90;;;;;;5040213;28;20067;-63
2021/12/25 05:45:39;;;;;;;2.70;0.70;;;-4.10;99.90;;;;;;5041223;28;20156;-63
2021/12/25 05:48:05;;;;;;;2.03;0.77;;;-4.20;99.90;;;;;;5031847;28;20166;-63
2021/12/25 05:50:31;;;;;;;1.35;0.55;;;-4.20;99.90;;;;;;5036257;28;20041;-64
2021/12/25 05:52:57;;;;;;;2.65;0.73;;;-4.30;99.90;;;;;;5044167;28;20473;-63
2021/12/25 05:55:24;;;;;;;2.15;0.70;;;-4.30;99.90;;;;;;5047001;28;20519;-63
2021/12/25 05:57:50;;;;;;;1.08;0.60;;;-4.30;99.90;;;;;;5029902;28;20055;-63
2021/12/25 06:00:16;;;;;;;3.03;0.90;;;-4.30;99.90;;;;;;5021955;28;20037;-64
2021/12/25 06:02:43;;;;;;;0.70;0.60;;;-4.30;99.90;;;;;;5012042;28;20191;-63
2021/12/25 06:05:09;;;;;;;3.15;0.70;;;-4.30;99.90;;;;;;5038890;28;20036;-63
2021/12/25 06:07:35;;;;;;;2.10;0.80;;;-4.30;99.90;;;;;;5033739;28;20033;-63
2021/12/25 06:10:00;;;;;;;1.35;0.70;;;-4.30;99.90;;;;;;5034243;28;20362;-63
2021/12/25 06:12:27;;;;;;;1.88;0.75;;;-4.30;99.90;;;;;;5029691;28;20037;-62
2021/12/25 06:14:54;;;;;;;4.15;0.70;;;-4.40;99.90;;;;;;5037309;28;20435;-63
2021/12/25 06:17:20;;;;;;;4.03;0.77;;;-4.40;99.90;;;;;;5046943;28;20100;-63
2021/12/25 06:19:45;;;;;;;1.25;0.63;;;-4.30;99.90;;;;;;5046009;28;20052;-64
2021/12/25 06:22:11;;;;;;;1.67;0.70;;;-4.40;99.90;;;;;;5034694;28;20255;-63
2021/12/25 06:24:40;;;;;;;1.05;0.80;;;-4.40;99.90;;;;;;5044859;28;20036;-63
2021/12/25 06:27:05;;;;;;;4.40;0.90;;;-4.40;99.90;;;;;;5041119;28;20033;-64
2021/12/25 06:29:31;;;;;;;3.33;0.98;;;-4.40;99.90;;;;;;5040156;28;20041;-64
2021/12/25 06:31:57;;;;;;;1.27;1.08;;;-4.40;99.90;;;;;;5035954;28;20436;-63
2021/12/25 06:34:23;;;;;;;3.70;0.90;;;-4.30;99.90;;;;;;5039760;28;20134;-63
2021/12/25 06:36:48;;;;;;;1.63;0.77;;;-4.40;99.90;;;;;;5029820;28;20041;-63
2021/12/25 06:39:15;;;;;;;0.60;0.60;;;-4.40;99.90;;;;;;5032831;28;20128;-63
2021/12/25 06:41:42;;;;;;;2.13;0.80;;;-4.50;99.90;;;;;;5029177;28;20041;-63
2021/12/25 06:44:08;;;;;;;1.10;0.90;;;-4.50;99.90;;;;;;5022490;28;20045;-63
2021/12/25 06:46:34;;;;;;;1.58;0.80;;;-4.50;99.90;;;;;;5028541;28;20088;-63
2021/12/25 06:48:59;;;;;;;1.58;0.60;;;-4.50;99.90;;;;;;5043730;28;20050;-64
2021/12/25 06:51:25;;;;;;;3.00;0.82;;;-4.50;99.90;;;;;;5046496;28;20042;-63
2021/12/25 06:53:50;;;;;;;2.03;0.82;;;-4.50;99.90;;;;;;5044845;28;20040;-64
2021/12/25 06:56:16;;;;;;;1.52;0.60;;;-4.50;99.90;;;;;;5025019;28;20506;-63
2021/12/25 06:58:42;;;;;;;1.80;0.70;;;-4.50;99.90;;;;;;5041024;28;20499;-64
2021/12/25 07:01:07;;;;;;;0.50;0.50;;;-4.50;99.90;;;;;;5043202;28;20060;-63
2021/12/25 07:03:33;;;;;;;3.22;0.93;;;-4.60;99.90;;;;;;5047097;28;20135;-64
2021/12/25 07:05:59;;;;;;;4.15;0.60;;;-4.60;99.90;;;;;;5047949;28;20138;-64
2021/12/25 07:08:24;;;;;;;2.97;0.70;;;-4.60;99.90;;;;;;5033320;28;20037;-63
2021/12/25 07:10:50;;;;;;;1.30;0.60;;;-4.60;99.90;;;;;;5041290;28;20874;-64
2021/12/25 07:13:18;;;;;;;1.02;0.50;;;-4.60;99.90;;;;;;5031765;28;20314;-64
2021/12/25 07:15:44;;;;;;;1.95;0.55;;;-4.60;99.90;;;;;;5031188;28;20033;-63
2021/12/25 07:18:10;;;;;;;1.75;0.75;;;-4.60;99.90;;;;;;5038193;28;20033;-63
2021/12/25 07:20:36;;;;;;;1.55;0.80;;;-4.60;99.90;;;;;;5035244;28;20498;-63
2021/12/25 07:23:01;;;;;;;1.30;0.63;;;-4.60;99.90;;;;;;5032931;28;20115;-63
2021/12/25 07:25:27;;;;;;;2.33;0.73;;;-4.60;99.90;;;;;;5048510;28;20045;-63
2021/12/25 07:27:53;;;;;;;1.60;0.70;;;-4.50;99.90;;;;;;5033373;28;20060;-63
2021/12/25 07:30:18;;;;;;;1.17;0.60;;;-4.50;99.90;;;;;;5062861;28;20049;-63
2021/12/25 07:32:44;;;;;;;0.75;0.75;;;-4.50;99.90;;;;;;5031671;28;20473;-63
2021/12/25 07:35:10;;;;;;;1.73;0.70;;;-4.60;99.90;;;;;;5040236;28;20064;-64
2021/12/25 07:37:36;;;;;;;2.63;0.80;;;-4.60;99.90;;;;;;5040259;28;20025;-63
2021/12/25 07:40:04;;;;;;;2.40;0.80;;;-4.50;99.90;;;;;;5043815;28;20056;-63
2021/12/25 07:42:30;;;;;;;2.50;0.75;;;-4.60;99.90;;;;;;5047406;28;20041;-64
2021/12/25 07:45:03;;;;;;;1.05;0.90;;;-4.60;99.90;;;;;;5047874;28;20037;-64
2021/12/25 07:47:31;;;;;;;2.30;1.10;;;-4.60;99.90;;;;;;5036076;28;20148;-64
2021/12/25 07:49:58;;;;;;;1.52;0.75;;;-4.70;99.90;;;;;;5034435;28;20123;-65
2021/12/25 07:52:24;;;;;;;1.52;0.95;;;-4.70;99.90;;;;;;5030169;28;20175;-64
2021/12/25 07:54:49;;;;;;;2.97;1.02;;;-4.70;99.90;;;;;;5017398;28;20081;-64
2021/12/25 07:57:15;;;;;;;4.25;1.20;;;-4.70;99.90;;;;;;5018466;28;20045;-64
2021/12/25 07:59:40;;;;;;;3.30;1.25;;;-4.70;99.90;;;;;;5030417;28;20041;-64
2021/12/25 08:02:06;;;;;;;2.38;1.40;;;-4.70;99.90;;;;;;5044220;28;20162;-64
2021/12/25 08:04:32;;;;;;;1.55;0.85;;;-4.70;99.90;;;;;;5050941;28;20044;-63
2021/12/25 08:06:57;;;;;;;2.55;1.10;;;-4.60;99.90;;;;;;5048936;28;20045;-63
2021/12/25 08:09:29;;;;;;;0.88;0.70;;;-4.70;99.90;;;;;;5035345;28;20172;-63
2021/12/25 08:11:59;;;;;;;0.70;0.70;;;-4.70;99.90;;;;;;5036101;28;20072;-64
2021/12/25 08:14:25;;;;;;;1.45;1.35;;;-4.70;99.90;;;;;;5018761;28;20045;-64
2021/12/25 08:16:56;;;;;;;1.65;0.77;;;-4.70;99.90;;;;;;5028935;28;20041;-63
2021/12/25 08:19:22;;;;;;;0.93;0.70;;;-4.70;99.90;;;;;;5017492;28;20396;-64
2021/12/25 08:21:49;;;;;;;4.07;0.88;;;-4.70;99.90;;;;;;5029598;28;20084;-64
2021/12/25 08:24:16;;;;;;;1.20;0.70;;;-4.70;99.90;;;;;;5047973;28;20046;-64
2021/12/25 08:26:42;;;;;;;1.85;0.95;;;-4.80;99.90;;;;;;5025019;28;20369;-64
2021/12/25 08:29:08;;;;;;;2.80;0.70;;;-4.80;99.90;;;;;;5044231;28;20048;-64
2021/12/25 08:31:34;;;;;;;2.20;0.90;;;-4.80;99.90;;;;;;5031616;28;20025;-63
2021/12/25 08:33:59;;;;;;;4.55;0.90;;;-4.80;99.90;;;;;;5035235;28;20096;-63
2021/12/25 08:36:25;;;;;;;1.45;0.70;;;-4.80;99.90;;;;;;5039938;28;20120;-70
2021/12/25 08:38:50;;;;;;;3.38;0.90;;;-4.80;99.90;;;;;;5039779;28;20892;-64
2021/12/25 08:41:16;;;;;;;2.20;0.80;;;-4.70;99.90;;;;;;5041884;28;20088;-63
2021/12/25 08:43:49;;;;;;;1.20;0.77;;;-4.70;99.90;;;;;;5031943;28;20033;-63
2021/12/25 08:46:34;;;;;;;1.40;0.90;;;-4.70;99.90;;;;;;5027892;28;20097;-64
2021/12/25 08:49:00;;;;;;;3.10;0.80;;;-4.60;99.90;;;;;;5036371;28;20384;-64
2021/12/25 08:51:26;;;;;;;1.48;0.70;;;-4.50;99.90;;;;;;5048224;28;20064;-64
2021/12/25 08:53:51;;;;;;;4.78;0.80;;;-4.40;99.90;;;;;;5033869;28;20377;-63
2021/12/25 08:56:17;;;;;;;2.30;0.80;;;-4.40;99.90;;;;;;5039618;28;20045;-63
2021/12/25 08:58:42;;;;;;;2.92;0.93;;;-4.30;99.90;;;;;;5048775;28;20045;-64
2021/12/25 09:01:09;;;;;;;2.45;0.93;;;-4.30;99.90;;;;;;5045885;28;20037;-64
2021/12/25 09:03:35;;;;;;;2.22;1.00;;;-4.20;99.90;;;;;;5033520;28;20051;-64
2021/12/25 09:06:01;;;;;;;2.58;1.08;;;-4.10;99.90;;;;;;5033125;28;20123;-63
2021/12/25 09:08:27;;;;;;;1.35;0.90;;;-4.10;99.90;;;;;;5046247;28;20110;-63
2021/12/25 09:10:53;;;;;;;3.00;0.85;;;-4.00;99.90;;;;;;5029355;28;20061;-64
2021/12/25 09:13:20;;;;;;;2.83;0.88;;;-4.00;99.90;;;;;;5027858;28;20052;-63
2021/12/25 09:15:45;;;;;;;0.95;0.63;;;-3.90;99.90;;;;;;5013212;28;20033;-63
2021/12/25 09:18:11;;;;;;;1.33;0.77;;;-3.80;99.90;;;;;;5028819;28;20523;-63
2021/12/25 09:20:37;;;;;;;1.65;0.85;;;-3.70;99.90;;;;;;5044574;28;20107;-64
2021/12/25 09:23:03;;;;;;;3.10;0.90;;;-3.70;99.90;;;;;;5035892;28;20098;-64
2021/12/25 09:25:29;;;;;;;2.58;0.90;;;-3.60;99.90;;;;;;5022763;28;20091;-64
2021/12/25 09:27:55;;;;;;;1.52;0.80;;;-3.60;99.90;;;;;;5034545;28;20105;-64
2021/12/25 09:30:21;;;;;;;3.25;0.85;;;-3.60;99.90;;;;;;5020122;28;20055;-63
2021/12/25 09:32:47;;;;;;;2.33;0.70;;;-3.50;99.90;;;;;;5032239;28;20039;-64
2021/12/25 09:35:13;;;;;;;2.83;0.80;;;-3.50;99.90;;;;;;5050840;28;20655;-63
2021/12/25 09:37:39;;;;;;;2.60;1.02;;;-3.40;99.90;;;;;;5049139;28;20037;-64
2021/12/25 09:40:07;;;;;;;3.00;0.80;;;-3.40;99.90;;;;;;5032912;28;20400;-64
2021/12/25 09:42:34;;;;;;;1.73;0.68;;;-3.40;99.90;;;;;;5031911;28;20102;-64
2021/12/25 09:45:00;;;;;;;3.42;1.00;;;-3.30;99.90;;;;;;5048262;28;20040;-65
2021/12/25 09:47:26;;;;;;;4.22;0.82;;;-3.30;99.90;;;;;;5048583;28;20033;-63
2021/12/25 09:49:52;;;;;;;2.13;0.73;;;-3.20;99.90;;;;;;5050490;28;20063;-64
2021/12/25 09:52:17;;;;;;;3.10;0.88;;;-3.20;99.90;;;;;;5050524;28;20037;-63
2021/12/25 09:54:43;;;;;;;1.65;0.85;;;-3.20;99.90;;;;;;5049204;28;20040;-65
2021/12/25 09:57:09;;;;;;;1.60;0.63;;;-3.20;99.90;;;;;;5048541;28;20461;-64
2021/12/25 09:59:35;;;;;;;1.23;0.90;;;-3.10;99.90;;;;;;5050121;28;20083;-64
2021/12/25 10:02:02;;;;;;;3.13;1.02;;;-3.10;99.90;;;;;;5019281;28;20414;-64
2021/12/25 10:04:37;;;;;;;3.28;1.00;;;-3.00;99.90;;;;;;5029356;28;20041;-64
2021/12/25 10:07:27;;;;;;;1.33;0.85;;;-3.00;99.90;;;;;;5030276;28;20121;-65
2021/12/25 10:09:58;;;;;;;3.85;0.85;;;-2.90;99.90;;;;;;5029602;28;20058;-64
2021/12/25 10:12:44;;;;;;;1.20;0.80;;;-2.90;99.90;;;;;;5051736;28;20423;-64
2021/12/25 10:15:22;;;;;;;1.63;0.68;;;-2.80;99.90;;;;;;5069336;28;20089;-64
2021/12/25 10:17:58;;;;;;;2.58;0.88;;;-2.80;99.90;;;;;;5070360;28;20036;-64
2021/12/25 10:20:29;;;;;;;3.22;1.05;;;-2.80;99.90;;;;;;5052080;28;20588;-64
2021/12/25 10:23:11;;;;;;;2.15;0.82;;;-2.70;99.90;;;;;;5068701;28;20056;-65
2021/12/25 10:25:49;;;;;;;0.98;0.80;;;-2.70;99.90;;;;;;5053107;28;20115;-64
2021/12/25 10:28:17;;;;;;;4.05;0.70;;;-2.70;99.90;;;;;;5073670;28;20485;-64
2021/12/25 10:30:52;;;;;;;2.72;0.90;;;-2.70;99.90;;;;;;5071468;28;20105;-65
2021/12/25 10:33:28;;;;;;;1.25;0.70;;;-2.60;99.90;;;;;;5074393;28;20116;-65
2021/12/25 10:35:55;;;;;;;2.17;0.93;;;-2.60;99.90;;;;;;5073464;28;20044;-64
2021/12/25 10:38:24;;;;;;;3.65;0.93;;;-2.60;99.90;;;;;;5074213;28;20064;-64
2021/12/25 10:40:50;;;;;;;1.58;0.73;;;-2.60;99.90;;;;;;5052775;28;20053;-64
2021/12/25 10:43:21;;;;;;;5.25;0.90;;;-2.50;99.90;;;;;;5051699;28;20467;-66
2021/12/25 10:46:01;;;;;;;4.78;1.15;;;-2.40;99.90;;;;;;5052778;28;20041;-64
2021/12/25 10:48:30;;;;;;;5.38;1.15;;;-2.40;99.90;;;;;;5053647;28;20049;-63
2021/12/25 10:50:57;;;;;;;2.92;0.93;;;-2.40;99.90;;;;;;5052585;28;20079;-64
2021/12/25 10:53:30;;;;;;;1.40;0.68;;;-2.30;99.90;;;;;;5016114;28;20118;-64
2021/12/25 10:56:08;;;;;;;3.30;0.80;;;-2.30;99.90;;;;;;5032536;28;20033;-64
2021/12/25 10:58:34;;;;;;;5.05;1.17;;;-2.20;99.90;;;;;;5048599;28;20052;-64
2021/12/25 11:01:00;;;;;;;2.58;0.70;;;-2.20;99.90;;;;;;5046424;28;20037;-64
2021/12/25 11:03:32;;;;;;;0.98;0.70;;;-2.10;99.90;;;;;;5044031;28;20094;-64
2021/12/25 11:06:04;;;;;;;2.35;1.02;;;-2.10;99.90;;;;;;5046223;28;20548;-65
2021/12/25 11:08:30;;;;;;;2.22;0.80;;;-2.10;99.90;;;;;;5053260;28;20036;-64
2021/12/25 11:11:01;;;;;;;2.15;0.68;;;-2.10;99.90;;;;;;5048115;28;20121;-64
2021/12/25 11:13:42;;;;;;;5.75;1.92;;;-2.10;99.90;;;;;;5032563;28;20042;-64
2021/12/25 11:16:27;;;;;;;1.23;0.60;;;-2.10;99.90;;;;;;5031822;28;20041;-65
2021/12/25 11:19:08;;;;;;;3.50;1.13;;;-2.10;99.90;;;;;;5044112;28;20075;-64
2021/12/25 11:21:44;;;;;;;4.38;1.10;;;-2.10;99.90;;;;;;5048790;28;20436;-64
2021/12/25 11:24:19;;;;;;;3.25;0.68;;;-2.00;99.90;;;;;;5047184;28;20098;-64
2021/12/25 11:26:50;;;;;;;2.53;1.00;;;-2.00;99.90;;;;;;5040431;28;20065;-64
2021/12/25 11:29:19;;;;;;;1.48;0.80;;;-2.00;99.90;;;;;;5013387;28;20095;-64
2021/12/25 11:31:48;;;;;;;1.27;0.70;;;-2.10;99.90;;;;;;5040286;28;20414;-65
2021/12/25 11:34:14;;;;;;;1.42;0.93;;;-2.10;99.90;;;;;;5040268;28;20774;-64
2021/12/25 11:36:45;;;;;;;2.58;0.68;;;-2.00;99.90;;;;;;5035207;28;20045;-64
2021/12/25 11:39:11;;;;;;;2.22;0.77;;;-2.10;99.90;;;;;;5015545;28;20117;-64
2021/12/25 11:41:38;;;;;;;0.90;0.70;;;-2.00;99.90;;;;;;5032415;28;20037;-64
2021/12/25 11:44:07;;;;;;;2.92;1.15;;;-1.90;99.90;;;;;;5046261;28;20052;-64
2021/12/25 11:46:40;;;;;;;3.03;0.80;;;-1.90;99.90;;;;;;5036965;28;20118;-64
2021/12/25 11:49:10;;;;;;;5.28;1.25;;;-1.90;99.90;;;;;;5043144;28;20033;-65
2021/12/25 11:51:39;;;;;;;1.67;0.70;;;-1.90;99.90;;;;;;5019020;28;20048;-64
2021/12/25 11:54:39;;;;;;;1.30;0.50;;;-1.90;99.90;;;;;;5014060;28;20713;-64
2021/12/25 11:59:48;;;;;;;1.35;0.80;;;-1.90;99.90;;;;;;5029395;28;20001;-64
2021/12/25 12:02:47;;;;;;;4.30;0.93;;;-1.90;99.90;;;;;;5045922;28;20048;-63
2021/12/25 12:05:30;;;;;;;3.10;0.82;;;-1.80;99.90;;;;;;5014005;28;20045;-64
2021/12/25 12:08:10;;;;;;;1.20;0.63;;;-1.80;99.90;;;;;;5042725;28;20071;-64
2021/12/25 12:10:48;;;;;;;2.17;0.90;;;-1.80;99.90;;;;;;5043137;28;20426;-64
2021/12/25 12:13:21;;;;;;;2.75;0.85;;;-1.80;99.90;;;;;;5045345;28;20053;-64
2021/12/25 12:15:51;;;;;;;2.90;0.90;;;-1.80;99.90;;;;;;5038090;28;20160;-64
2021/12/25 12:18:27;;;;;;;5.22;1.10;;;-1.80;99.90;;;;;;5051517;28;20071;-64
2021/12/25 12:21:07;;;;;;;1.60;0.77;;;-1.80;99.90;;;;;;5051063;28;20049;-64
2021/12/25 12:23:57;;;;;;;2.63;0.90;;;-1.80;99.90;;;;;;5030658;28;20511;-65
2021/12/25 12:26:44;;;;;;;3.13;0.85;;;-1.80;99.90;;;;;;5030690;28;20041;-63
2021/12/25 12:29:11;;;;;;;2.35;0.88;;;-1.70;99.90;;;;;;5040633;28;20473;-64
2021/12/25 12:31:45;;;;;;;1.10;0.60;;;-1.80;99.90;;;;;;5033456;28;20481;-64
2021/12/25 12:34:29;;;;;;;1.30;0.70;;;-1.80;98.70;;;;;;5016048;28;20045;-64
2021/12/25 12:37:13;;;;;;;0.93;0.70;;;-1.80;99.90;;;;;;5043383;28;20037;-65
2021/12/25 12:39:40;;;;;;;1.55;0.82;;;-1.80;96.40;;;;;;5034020;28;20043;-64
2021/12/25 12:42:12;;;;;;;1.63;0.60;;;-1.70;98.50;;;;;;5033507;28;20026;-64
2021/12/25 12:44:38;;;;;;;1.25;0.88;;;-1.70;99.90;;;;;;5020037;28;20136;-64
2021/12/25 12:47:14;;;;;;;1.33;0.80;;;-1.70;99.90;;;;;;5027548;28;20042;-64
2021/12/25 12:49:39;;;;;;;1.50;0.80;;;-1.70;99.90;;;;;;5030260;28;20087;-64
2021/12/25 12:52:26;;;;;;;9.27;0.95;;;-1.70;99.90;;;;;;5021702;28;20041;-64
2021/12/25 12:54:57;;;;;;;2.58;1.02;;;-1.70;99.90;;;;;;5029947;28;20041;-63
2021/12/25 12:57:33;;;;;;;2.13;0.90;;;-1.70;99.90;;;;;;5030656;28;20124;-64
2021/12/25 13:00:20;;;;;;;2.17;0.82;;;-1.70;99.90;;;;;;5012592;28;20069;-64
2021/12/25 13:02:51;;;;;;;1.13;0.70;;;-1.60;99.90;;;;;;5029819;28;20063;-64
2021/12/25 13:05:23;;;;;;;1.60;0.70;;;-1.60;99.90;;;;;;5029942;28;20380;-64
2021/12/25 13:07:50;;;;;;;1.73;0.73;;;-1.70;99.90;;;;;;5029522;28;20415;-64
2021/12/25 13:10:25;;;;;;;1.67;0.93;;;-1.70;99.40;;;;;;5016766;28;20146;-63
2021/12/25 13:12:56;;;;;;;2.95;0.73;;;-1.70;99.90;;;;;;5038567;28;20041;-64
2021/12/25 13:15:31;;;;;;;1.05;0.80;;;-1.70;98.40;;;;;;5044751;28;20082;-63
2021/12/25 13:18:00;;;;;;;2.25;0.65;;;-1.70;99.90;;;;;;5046327;28;20118;-64
2021/12/25 13:20:53;;;;;;;1.92;0.82;;;-1.70;99.90;;;;;;5044016;28;20071;-64
2021/12/25 13:23:21;;;;;;;1.55;1.00;;;-1.70;99.90;;;;;;5032892;28;20068;-64
2021/12/25 13:25:58;;;;;;;1.67;0.70;;;-1.70;99.90;;;;;;5037445;28;20140;-64
2021/12/25 13:28:27;;;;;;;1.67;0.95;;;-1.70;99.90;;;;;;5026007;28;20060;-64
2021/12/25 13:31:03;;;;;;;1.60;0.60;;;-1.70;99.90;;;;;;5039566;28;20041;-64
2021/12/25 13:33:31;;;;;;;1.63;0.57;;;-1.80;99.90;;;;;;5024783;28;20036;-64
2021/12/25 13:36:09;;;;;;;1.90;1.00;;;-1.70;99.90;;;;;;5036374;28;20040;-64
2021/12/25 13:38:51;;;;;;;2.05;0.70;;;-1.70;99.90;;;;;;5046064;28;20175;-65
2021/12/25 13:41:39;;;;;;;1.20;0.80;;;-1.80;99.90;;;;;;5039892;28;20771;-64
2021/12/25 13:44:08;;;;;;;1.65;0.60;;;-1.80;99.90;;;;;;5040726;28;20435;-64
2021/12/25 13:46:51;;;;;;;5.97;1.00;;;-1.80;99.90;;;;;;5028752;28;20399;-64
2021/12/25 13:49:28;;;;;;;1.65;0.90;;;-1.80;98.70;;;;;;5048994;28;20037;-65
2021/12/25 13:51:53;;;;;;;1.75;1.00;;;-1.80;95.40;;;;;;5049105;28;20049;-65
2021/12/25 13:54:20;;;;;;;1.08;0.80;;;-1.80;99.50;;;;;;5049285;28;20033;-64
2021/12/25 13:56:52;;;;;;;0.88;0.70;;;-1.80;94.00;;;;;;5048307;28;20040;-64
2021/12/25 13:59:18;;;;;;;2.33;0.95;;;-1.80;99.90;;;;;;5045028;28;20033;-63
2021/12/25 14:01:44;;;;;;;2.60;1.00;;;-1.90;99.90;;;;;;5027025;28;20045;-64
2021/12/25 14:04:12;;;;;;;3.65;0.88;;;-1.90;99.90;;;;;;5042720;28;20392;-65
2021/12/25 14:06:38;;;;;;;0.93;0.77;;;-1.90;99.90;;;;;;5027975;28;20098;-64
2021/12/25 14:09:05;;;;;;;3.15;1.13;;;-1.90;99.90;;;;;;5012008;28;20045;-65